Gaylesville, AL

3:49 PM CDT on April 27, 2015 (GMT -0500)
The Ridges | | Change Station
CLOSE
Current Station
Personal Weather Station
Location: Cedar Bluff, AL
Elevation: 639 ft
Nearby Weather Stations

Elev 639 ft 34.29 °N, 85.63 °W | Updated 1 minute ago

Clear
Clear
71.8 °F
Feels Like 73 °F
N
2.0
Wind Variable Wind from SSE
Gusts 2.2 mph

Today
High -- | Low -- °F
--% Chance of Precip.
Yesterday
High -- | Low -- °F
Precip. -- in
5:56 AM 7:23 PM
Waxing Gibbous, 67% visible
Pressure 29.89 in
Visibility 10.0 miles
Clouds Clear
Heat Index 73 °F
Dew Point 12 °F
Humidity 10%
Rainfall 0.32 in
Snow Depth Not available.
UV 7 out of 12
Pollen 7.90 out of 12
Air Quality Not available.
Flu Activity No Activity
METAR K4A9 272015Z AUTO 01004KT 10SM CLR 18/00 A2989 RMK AO2

More Conditions Fewer Conditions

Pressure 29.89 in
Visibility 10.0 miles
Clouds Clear
Heat Index 73 °F
Dew Point 12 °F
Humidity 10%
Rainfall 0.32 in
Snow Depth Not available.
UV 7 out of 12
Pollen 7.90 out of 12
Air Quality Not available.
Flu Activity No Activity
METAR K4A9 272015Z AUTO 01004KT 10SM CLR 18/00 A2989 RMK AO2

More Conditions Fewer Conditions

10-Day Weather Forecast

Almanac

Astronomy

Apr. 27, 2015 Rise Set
Actual Time
Civil Twilight
Nautical Twilight
Astronomical Twilight
Moon
Length of Visible Light
Length of Day
Tomorrow will be .
, % of the Moon is Illuminated

Today's Extremes

State Highs State Lows

Community

WunderPhotos

Upload Photos

1,817,421 photos uploaded!

WunderBlogs® & News

Nearby

Air Quality

  Air Quality AQ Index Pollutant
Not available.

Snow Depth

Station Depth Elevation

Earthquake Activity

City Distance Mag. Time & Date
Minimum magnitude displayed is 2.5.

Coastal Water Temperatures

Place Temperature

Stations

Nearby Weather Stations

Station Location Temp. Windchill Dew Point Humidity Wind Precip. Elev Updated Type